sensor_id;sensor_type;location;lat;lon;timestamp;temperature;humidity
32139;DHT22;18644;48.700;9.210;2023-03-12T00:02:18;2.10;53.80
32139;DHT22;18644;48.700;9.210;2023-03-12T00:04:46;2.10;53.90
32139;DHT22;18644;48.700;9.210;2023-03-12T00:07:13;2.10;53.90
32139;DHT22;18644;48.700;9.210;2023-03-12T00:09:40;2.10;53.90
32139;DHT22;18644;48.700;9.210;2023-03-12T00:12:09;2.00;54.00
32139;DHT22;18644;48.700;9.210;2023-03-12T00:14:35;2.00;54.10
32139;DHT22;18644;48.700;9.210;2023-03-12T00:17:03;2.00;54.20
32139;DHT22;18644;48.700;9.210;2023-03-12T00:19:30;1.90;54.40
32139;DHT22;18644;48.700;9.210;2023-03-12T00:21:57;2.00;54.50
32139;DHT22;18644;48.700;9.210;2023-03-12T00:24:24;1.90;54.40
32139;DHT22;18644;48.700;9.210;2023-03-12T00:26:50;1.90;54.40
32139;DHT22;18644;48.700;9.210;2023-03-12T00:29:19;1.90;54.40
32139;DHT22;18644;48.700;9.210;2023-03-12T00:31:46;1.90;54.50
32139;DHT22;18644;48.700;9.210;2023-03-12T00:34:13;1.90;54.50
32139;DHT22;18644;48.700;9.210;2023-03-12T00:36:40;1.90;54.40
32139;DHT22;18644;48.700;9.210;2023-03-12T00:39:07;1.80;54.40
32139;DHT22;18644;48.700;9.210;2023-03-12T00:41:33;1.80;54.50
32139;DHT22;18644;48.700;9.210;2023-03-12T00:44:01;1.80;54.60
32139;DHT22;18644;48.700;9.210;2023-03-12T00:46:31;1.80;54.60
32139;DHT22;18644;48.700;9.210;2023-03-12T00:49:01;1.80;54.60
32139;DHT22;18644;48.700;9.210;2023-03-12T00:51:30;1.80;54.50
32139;DHT22;18644;48.700;9.210;2023-03-12T00:53:57;1.80;54.50
32139;DHT22;18644;48.700;9.210;2023-03-12T00:56:25;1.70;54.50
32139;DHT22;18644;48.700;9.210;2023-03-12T00:58:52;1.70;54.50
32139;DHT22;18644;48.700;9.210;2023-03-12T01:01:19;1.70;54.60
32139;DHT22;18644;48.700;9.210;2023-03-12T01:03:49;1.70;54.70
32139;DHT22;18644;48.700;9.210;2023-03-12T01:06:17;1.70;54.80
32139;DHT22;18644;48.700;9.210;2023-03-12T01:08:44;1.70;54.90
32139;DHT22;18644;48.700;9.210;2023-03-12T01:11:12;1.60;54.90
32139;DHT22;18644;48.700;9.210;2023-03-12T01:13:39;1.60;54.90
32139;DHT22;18644;48.700;9.210;2023-03-12T01:16:07;1.70;55.00
32139;DHT22;18644;48.700;9.210;2023-03-12T01:18:34;1.60;55.00
32139;DHT22;18644;48.700;9.210;2023-03-12T01:21:03;1.60;55.20
32139;DHT22;18644;48.700;9.210;2023-03-12T01:23:31;1.60;55.40
32139;DHT22;18644;48.700;9.210;2023-03-12T01:25:58;1.70;55.50
32139;DHT22;18644;48.700;9.210;2023-03-12T01:28:25;1.60;55.60
32139;DHT22;18644;48.700;9.210;2023-03-12T01:30:52;1.70;55.70
32139;DHT22;18644;48.700;9.210;2023-03-12T01:33:19;1.70;55.80
32139;DHT22;18644;48.700;9.210;2023-03-12T01:35:47;1.70;55.90
32139;DHT22;18644;48.700;9.210;2023-03-12T01:38:16;1.70;55.90
32139;DHT22;18644;48.700;9.210;2023-03-12T01:40:45;1.70;55.90
32139;DHT22;18644;48.700;9.210;2023-03-12T01:43:24;1.80;56.00
32139;DHT22;18644;48.700;9.210;2023-03-12T01:46:08;1.80;56.10
32139;DHT22;18644;48.700;9.210;2023-03-12T01:48:48;1.80;56.20
32139;DHT22;18644;48.700;9.210;2023-03-12T01:51:17;1.80;56.10
32139;DHT22;18644;48.700;9.210;2023-03-12T01:53:50;1.80;56.00
32139;DHT22;18644;48.700;9.210;2023-03-12T01:56:20;1.90;56.00
32139;DHT22;18644;48.700;9.210;2023-03-12T01:58:52;1.90;56.00
32139;DHT22;18644;48.700;9.210;2023-03-12T02:01:21;1.90;56.10
32139;DHT22;18644;48.700;9.210;2023-03-12T02:03:51;2.00;56.20
32139;DHT22;18644;48.700;9.210;2023-03-12T02:06:22;2.00;56.20
32139;DHT22;18644;48.700;9.210;2023-03-12T02:08:52;2.00;56.20
32139;DHT22;18644;48.700;9.210;2023-03-12T02:11:20;2.10;56.40
32139;DHT22;18644;48.700;9.210;2023-03-12T02:13:47;2.10;56.00
32139;DHT22;18644;48.700;9.210;2023-03-12T02:16:16;2.10;56.00
32139;DHT22;18644;48.700;9.210;2023-03-12T02:18:44;2.10;55.90
32139;DHT22;18644;48.700;9.210;2023-03-12T02:21:16;2.20;55.90
32139;DHT22;18644;48.700;9.210;2023-03-12T02:23:51;2.20;56.00
32139;DHT22;18644;48.700;9.210;2023-03-12T02:26:25;2.20;56.00
32139;DHT22;18644;48.700;9.210;2023-03-12T02:28:53;2.20;56.10
32139;DHT22;18644;48.700;9.210;2023-03-12T02:31:27;2.30;56.10
32139;DHT22;18644;48.700;9.210;2023-03-12T02:33:59;2.20;56.10
32139;DHT22;18644;48.700;9.210;2023-03-12T02:36:26;2.30;56.10
32139;DHT22;18644;48.700;9.210;2023-03-12T02:38:55;2.30;56.10
32139;DHT22;18644;48.700;9.210;2023-03-12T02:41:26;2.40;56.20
32139;DHT22;18644;48.700;9.210;2023-03-12T02:43:59;2.40;56.20
32139;DHT22;18644;48.700;9.210;2023-03-12T02:46:33;2.40;56.20
32139;DHT22;18644;48.700;9.210;2023-03-12T02:49:04;2.40;56.20
32139;DHT22;18644;48.700;9.210;2023-03-12T02:51:31;2.40;56.20
32139;DHT22;18644;48.700;9.210;2023-03-12T02:53:58;2.40;56.20
32139;DHT22;18644;48.700;9.210;2023-03-12T02:56:27;2.50;56.30
32139;DHT22;18644;48.700;9.210;2023-03-12T02:58:55;2.50;56.40
32139;DHT22;18644;48.700;9.210;2023-03-12T03:01:22;2.50;56.40
32139;DHT22;18644;48.700;9.210;2023-03-12T03:03:50;2.50;56.50
32139;DHT22;18644;48.700;9.210;2023-03-12T03:06:17;2.50;56.50
32139;DHT22;18644;48.700;9.210;2023-03-12T03:08:44;2.60;56.50
32139;DHT22;18644;48.700;9.210;2023-03-12T03:11:14;2.60;56.50
32139;DHT22;18644;48.700;9.210;2023-03-12T03:13:42;2.60;56.50
32139;DHT22;18644;48.700;9.210;2023-03-12T03:16:10;2.60;56.50
32139;DHT22;18644;48.700;9.210;2023-03-12T03:18:38;2.60;56.50
32139;DHT22;18644;48.700;9.210;2023-03-12T03:21:09;2.60;56.50
32139;DHT22;18644;48.700;9.210;2023-03-12T03:23:41;2.70;56.60
32139;DHT22;18644;48.700;9.210;2023-03-12T03:26:09;2.70;56.60
32139;DHT22;18644;48.700;9.210;2023-03-12T03:28:36;2.70;57.10
32139;DHT22;18644;48.700;9.210;2023-03-12T03:31:05;2.70;56.60
32139;DHT22;18644;48.700;9.210;2023-03-12T03:33:35;2.70;56.60
32139;DHT22;18644;48.700;9.210;2023-03-12T03:36:04;2.70;56.90
32139;DHT22;18644;48.700;9.210;2023-03-12T03:38:33;2.70;56.50
32139;DHT22;18644;48.700;9.210;2023-03-12T03:41:05;2.70;57.10
32139;DHT22;18644;48.700;9.210;2023-03-12T03:43:33;2.70;56.60
32139;DHT22;18644;48.700;9.210;2023-03-12T03:46:02;2.80;56.60
32139;DHT22;18644;48.700;9.210;2023-03-12T03:48:31;2.80;56.70
32139;DHT22;18644;48.700;9.210;2023-03-12T03:50:59;2.80;56.80
32139;DHT22;18644;48.700;9.210;2023-03-12T03:53:26;2.80;56.90
32139;DHT22;18644;48.700;9.210;2023-03-12T03:55:53;2.80;56.90
32139;DHT22;18644;48.700;9.210;2023-03-12T03:58:20;2.80;56.90
32139;DHT22;18644;48.700;9.210;2023-03-12T04:00:48;2.90;57.00
32139;DHT22;18644;48.700;9.210;2023-03-12T04:03:16;2.90;56.90
32139;DHT22;18644;48.700;9.210;2023-03-12T04:05:43;2.90;56.90
32139;DHT22;18644;48.700;9.210;2023-03-12T04:08:11;2.90;56.90
32139;DHT22;18644;48.700;9.210;2023-03-12T04:10:39;2.90;57.00
32139;DHT22;18644;48.700;9.210;2023-03-12T04:13:06;2.90;57.00
32139;DHT22;18644;48.700;9.210;2023-03-12T04:15:33;2.90;57.00
32139;DHT22;18644;48.700;9.210;2023-03-12T04:18:00;2.90;57.00
32139;DHT22;18644;48.700;9.210;2023-03-12T04:20:29;3.00;57.00
32139;DHT22;18644;48.700;9.210;2023-03-12T04:22:56;3.00;57.10
32139;DHT22;18644;48.700;9.210;2023-03-12T04:25:27;3.00;57.10
32139;DHT22;18644;48.700;9.210;2023-03-12T04:27:54;3.00;57.10
32139;DHT22;18644;48.700;9.210;2023-03-12T04:30:22;3.00;57.20
32139;DHT22;18644;48.700;9.210;2023-03-12T04:32:49;3.00;57.30
32139;DHT22;18644;48.700;9.210;2023-03-12T04:35:19;3.10;57.40
32139;DHT22;18644;48.700;9.210;2023-03-12T04:37:51;3.10;57.40
32139;DHT22;18644;48.700;9.210;2023-03-12T04:40:18;3.10;57.40
32139;DHT22;18644;48.700;9.210;2023-03-12T04:42:45;3.20;57.40
32139;DHT22;18644;48.700;9.210;2023-03-12T04:45:13;3.20;57.40
32139;DHT22;18644;48.700;9.210;2023-03-12T04:47:40;3.20;57.30
32139;DHT22;18644;48.700;9.210;2023-03-12T04:50:09;3.20;57.30
32139;DHT22;18644;48.700;9.210;2023-03-12T04:52:39;3.20;57.90
32139;DHT22;18644;48.700;9.210;2023-03-12T04:55:08;3.30;57.40
32139;DHT22;18644;48.700;9.210;2023-03-12T04:57:35;3.30;57.40
32139;DHT22;18644;48.700;9.210;2023-03-12T05:00:03;3.30;57.20
32139;DHT22;18644;48.700;9.210;2023-03-12T05:02:35;3.30;57.20
32139;DHT22;18644;48.700;9.210;2023-03-12T05:05:03;3.30;57.10
32139;DHT22;18644;48.700;9.210;2023-03-12T05:07:32;3.30;57.10
32139;DHT22;18644;48.700;9.210;2023-03-12T05:10:02;3.30;57.10
32139;DHT22;18644;48.700;9.210;2023-03-12T05:12:31;3.30;57.20
32139;DHT22;18644;48.700;9.210;2023-03-12T05:14:58;3.30;57.20
32139;DHT22;18644;48.700;9.210;2023-03-12T05:17:25;3.40;57.20
32139;DHT22;18644;48.700;9.210;2023-03-12T05:19:52;3.40;57.30
32139;DHT22;18644;48.700;9.210;2023-03-12T05:22:19;3.40;57.30
32139;DHT22;18644;48.700;9.210;2023-03-12T05:24:46;3.40;57.40
32139;DHT22;18644;48.700;9.210;2023-03-12T05:27:13;3.50;57.40
32139;DHT22;18644;48.700;9.210;2023-03-12T05:29:41;3.50;57.40
32139;DHT22;18644;48.700;9.210;2023-03-12T05:32:08;3.50;57.40
32139;DHT22;18644;48.700;9.210;2023-03-12T05:34:35;3.50;57.40
32139;DHT22;18644;48.700;9.210;2023-03-12T05:37:05;3.50;57.50
32139;DHT22;18644;48.700;9.210;2023-03-12T05:39:32;3.50;57.60
32139;DHT22;18644;48.700;9.210;2023-03-12T05:41:59;3.50;57.60
32139;DHT22;18644;48.700;9.210;2023-03-12T05:44:26;3.60;57.70
32139;DHT22;18644;48.700;9.210;2023-03-12T05:46:57;3.60;57.70
32139;DHT22;18644;48.700;9.210;2023-03-12T05:49:24;3.60;57.70
32139;DHT22;18644;48.700;9.210;2023-03-12T05:51:52;3.60;57.80
32139;DHT22;18644;48.700;9.210;2023-03-12T05:54:19;3.60;57.90
32139;DHT22;18644;48.700;9.210;2023-03-12T05:56:46;3.70;58.00
32139;DHT22;18644;48.700;9.210;2023-03-12T05:59:13;3.70;58.00
32139;DHT22;18644;48.700;9.210;2023-03-12T06:01:40;3.70;58.00
32139;DHT22;18644;48.700;9.210;2023-03-12T06:04:12;3.70;58.10
32139;DHT22;18644;48.700;9.210;2023-03-12T06:06:39;3.80;58.20
32139;DHT22;18644;48.700;9.210;2023-03-12T06:09:06;3.80;58.30
32139;DHT22;18644;48.700;9.210;2023-03-12T06:11:33;3.80;58.20
32139;DHT22;18644;48.700;9.210;2023-03-12T06:14:00;3.80;58.20
32139;DHT22;18644;48.700;9.210;2023-03-12T06:16:28;3.80;58.10
32139;DHT22;18644;48.700;9.210;2023-03-12T06:18:59;3.90;58.20
32139;DHT22;18644;48.700;9.210;2023-03-12T06:21:30;3.90;58.20
32139;DHT22;18644;48.700;9.210;2023-03-12T06:23:58;3.90;58.20
32139;DHT22;18644;48.700;9.210;2023-03-12T06:26:26;3.90;58.20
32139;DHT22;18644;48.700;9.210;2023-03-12T06:28:54;3.90;58.30
32139;DHT22;18644;48.700;9.210;2023-03-12T06:31:21;3.90;58.40
32139;DHT22;18644;48.700;9.210;2023-03-12T06:33:49;3.90;58.50
32139;DHT22;18644;48.700;9.210;2023-03-12T06:36:18;3.90;58.50
32139;DHT22;18644;48.700;9.210;2023-03-12T06:38:48;3.90;58.60
32139;DHT22;18644;48.700;9.210;2023-03-12T06:41:17;4.00;58.70
32139;DHT22;18644;48.700;9.210;2023-03-12T06:43:45;4.00;58.80
32139;DHT22;18644;48.700;9.210;2023-03-12T06:46:15;4.00;58.90
32139;DHT22;18644;48.700;9.210;2023-03-12T06:48:43;4.00;59.00
32139;DHT22;18644;48.700;9.210;2023-03-12T06:51:12;4.10;59.10
32139;DHT22;18644;48.700;9.210;2023-03-12T06:53:41;4.10;59.00
32139;DHT22;18644;48.700;9.210;2023-03-12T06:56:10;4.10;59.00
32139;DHT22;18644;48.700;9.210;2023-03-12T06:58:38;4.10;59.10
32139;DHT22;18644;48.700;9.210;2023-03-12T07:01:05;4.20;59.30
32139;DHT22;18644;48.700;9.210;2023-03-12T07:03:32;4.20;59.20
32139;DHT22;18644;48.700;9.210;2023-03-12T07:05:59;4.20;59.40
32139;DHT22;18644;48.700;9.210;2023-03-12T07:08:27;4.30;59.40
32139;DHT22;18644;48.700;9.210;2023-03-12T07:10:55;4.30;59.40
32139;DHT22;18644;48.700;9.210;2023-03-12T07:13:23;4.30;59.50
32139;DHT22;18644;48.700;9.210;2023-03-12T07:15:50;4.40;59.60
32139;DHT22;18644;48.700;9.210;2023-03-12T07:18:17;4.40;59.60
32139;DHT22;18644;48.700;9.210;2023-03-12T07:20:44;4.50;59.70
32139;DHT22;18644;48.700;9.210;2023-03-12T07:23:12;4.50;59.70
32139;DHT22;18644;48.700;9.210;2023-03-12T07:25:43;4.50;59.70
32139;DHT22;18644;48.700;9.210;2023-03-12T07:28:11;4.50;59.70
32139;DHT22;18644;48.700;9.210;2023-03-12T07:30:40;4.60;59.70
32139;DHT22;18644;48.700;9.210;2023-03-12T07:33:09;4.60;59.80
32139;DHT22;18644;48.700;9.210;2023-03-12T07:35:37;4.70;59.90
32139;DHT22;18644;48.700;9.210;2023-03-12T07:38:05;4.70;60.50
32139;DHT22;18644;48.700;9.210;2023-03-12T07:40:33;4.70;59.90
32139;DHT22;18644;48.700;9.210;2023-03-12T07:43:01;4.80;60.00
32139;DHT22;18644;48.700;9.210;2023-03-12T07:45:31;4.80;60.10
32139;DHT22;18644;48.700;9.210;2023-03-12T07:47:59;4.90;60.10
32139;DHT22;18644;48.700;9.210;2023-03-12T07:50:26;4.90;60.10
32139;DHT22;18644;48.700;9.210;2023-03-12T07:52:53;5.00;60.20
32139;DHT22;18644;48.700;9.210;2023-03-12T07:55:20;5.00;60.40
32139;DHT22;18644;48.700;9.210;2023-03-12T07:57:47;5.10;60.50
32139;DHT22;18644;48.700;9.210;2023-03-12T08:00:14;5.20;60.70
32139;DHT22;18644;48.700;9.210;2023-03-12T08:02:42;5.30;60.80
32139;DHT22;18644;48.700;9.210;2023-03-12T08:05:11;5.30;60.80
32139;DHT22;18644;48.700;9.210;2023-03-12T08:07:37;5.40;60.90
32139;DHT22;18644;48.700;9.210;2023-03-12T08:10:06;5.50;61.10
32139;DHT22;18644;48.700;9.210;2023-03-12T08:12:34;5.60;61.40
32139;DHT22;18644;48.700;9.210;2023-03-12T08:15:02;5.70;61.70
32139;DHT22;18644;48.700;9.210;2023-03-12T08:17:29;5.80;61.80
32139;DHT22;18644;48.700;9.210;2023-03-12T08:19:56;6.00;62.20
32139;DHT22;18644;48.700;9.210;2023-03-12T08:22:24;6.10;62.20
32139;DHT22;18644;48.700;9.210;2023-03-12T08:24:51;6.30;62.00
32139;DHT22;18644;48.700;9.210;2023-03-12T08:27:18;6.40;61.90
32139;DHT22;18644;48.700;9.210;2023-03-12T08:29:45;6.50;61.80
32139;DHT22;18644;48.700;9.210;2023-03-12T08:32:12;6.60;61.60
32139;DHT22;18644;48.700;9.210;2023-03-12T08:34:39;6.80;61.60
32139;DHT22;18644;48.700;9.210;2023-03-12T08:37:06;6.90;61.50
32139;DHT22;18644;48.700;9.210;2023-03-12T08:39:35;7.00;61.30
32139;DHT22;18644;48.700;9.210;2023-03-12T08:42:02;7.00;61.90
32139;DHT22;18644;48.700;9.210;2023-03-12T08:44:30;7.10;61.20
32139;DHT22;18644;48.700;9.210;2023-03-12T08:46:57;7.20;61.20
32139;DHT22;18644;48.700;9.210;2023-03-12T08:49:24;7.30;61.20
32139;DHT22;18644;48.700;9.210;2023-03-12T08:51:51;7.40;61.00
32139;DHT22;18644;48.700;9.210;2023-03-12T08:54:18;7.40;61.00
32139;DHT22;18644;48.700;9.210;2023-03-12T08:56:50;7.50;61.00
32139;DHT22;18644;48.700;9.210;2023-03-12T08:59:18;7.60;61.00
32139;DHT22;18644;48.700;9.210;2023-03-12T09:01:46;7.60;61.00
32139;DHT22;18644;48.700;9.210;2023-03-12T09:04:14;7.70;60.70
32139;DHT22;18644;48.700;9.210;2023-03-12T09:06:41;7.80;60.60
32139;DHT22;18644;48.700;9.210;2023-03-12T09:09:09;7.80;60.80
32139;DHT22;18644;48.700;9.210;2023-03-12T09:11:36;7.90;60.60
32139;DHT22;18644;48.700;9.210;2023-03-12T09:14:07;8.00;60.70
32139;DHT22;18644;48.700;9.210;2023-03-12T09:16:34;8.00;60.90
32139;DHT22;18644;48.700;9.210;2023-03-12T09:19:01;8.10;61.20
32139;DHT22;18644;48.700;9.210;2023-03-12T09:21:28;8.20;61.50
32139;DHT22;18644;48.700;9.210;2023-03-12T09:23:55;8.30;61.70
32139;DHT22;18644;48.700;9.210;2023-03-12T09:26:22;8.40;61.90
32139;DHT22;18644;48.700;9.210;2023-03-12T09:28:49;8.60;61.90
32139;DHT22;18644;48.700;9.210;2023-03-12T09:31:17;8.60;62.00
32139;DHT22;18644;48.700;9.210;2023-03-12T09:33:44;8.80;62.20
32139;DHT22;18644;48.700;9.210;2023-03-12T09:36:11;8.90;62.40
32139;DHT22;18644;48.700;9.210;2023-03-12T09:38:38;9.00;62.50
32139;DHT22;18644;48.700;9.210;2023-03-12T09:41:11;9.10;62.60
32139;DHT22;18644;48.700;9.210;2023-03-12T09:43:48;9.20;62.50
32139;DHT22;18644;48.700;9.210;2023-03-12T09:46:24;9.40;62.80
32139;DHT22;18644;48.700;9.210;2023-03-12T09:48:55;9.50;63.00
32139;DHT22;18644;48.700;9.210;2023-03-12T09:51:28;9.60;62.90
32139;DHT22;18644;48.700;9.210;2023-03-12T09:54:00;9.70;62.90
32139;DHT22;18644;48.700;9.210;2023-03-12T09:56:29;9.90;63.20
32139;DHT22;18644;48.700;9.210;2023-03-12T09:58:56;10.00;63.30
32139;DHT22;18644;48.700;9.210;2023-03-12T10:01:36;10.20;63.10
32139;DHT22;18644;48.700;9.210;2023-03-12T10:04:23;10.30;63.30
32139;DHT22;18644;48.700;9.210;2023-03-12T10:06:59;10.40;63.00
32139;DHT22;18644;48.700;9.210;2023-03-12T10:09:38;10.50;62.80
32139;DHT22;18644;48.700;9.210;2023-03-12T10:12:33;10.60;62.80
32139;DHT22;18644;48.700;9.210;2023-03-12T10:15:16;10.80;62.80
32139;DHT22;18644;48.700;9.210;2023-03-12T10:18:05;10.90;62.70
32139;DHT22;18644;48.700;9.210;2023-03-12T10:21:14;11.00;62.80
32139;DHT22;18644;48.700;9.210;2023-03-12T10:23:59;11.10;63.30
32139;DHT22;18644;48.700;9.210;2023-03-12T10:26:35;11.20;63.10
32139;DHT22;18644;48.700;9.210;2023-03-12T10:29:10;11.40;63.20
32139;DHT22;18644;48.700;9.210;2023-03-12T10:31:47;11.50;64.10
32139;DHT22;18644;48.700;9.210;2023-03-12T10:34:29;11.70;63.90
32139;DHT22;18644;48.700;9.210;2023-03-12T10:37:04;11.80;63.60
32139;DHT22;18644;48.700;9.210;2023-03-12T10:39:38;12.00;63.70
32139;DHT22;18644;48.700;9.210;2023-03-12T10:42:12;12.20;64.10
32139;DHT22;18644;48.700;9.210;2023-03-12T10:44:41;12.30;64.10
32139;DHT22;18644;48.700;9.210;2023-03-12T10:47:22;12.50;64.00
32139;DHT22;18644;48.700;9.210;2023-03-12T10:50:11;12.60;63.70
32139;DHT22;18644;48.700;9.210;2023-03-12T10:52:40;12.80;63.40
32139;DHT22;18644;48.700;9.210;2023-03-12T10:55:18;12.90;62.80
32139;DHT22;18644;48.700;9.210;2023-03-12T10:57:48;13.00;62.50
32139;DHT22;18644;48.700;9.210;2023-03-12T11:00:19;13.10;62.80
32139;DHT22;18644;48.700;9.210;2023-03-12T11:02:55;13.20;61.90
32139;DHT22;18644;48.700;9.210;2023-03-12T11:05:27;13.30;62.10
32139;DHT22;18644;48.700;9.210;2023-03-12T11:07:55;13.40;62.10
32139;DHT22;18644;48.700;9.210;2023-03-12T11:10:25;13.50;62.30
32139;DHT22;18644;48.700;9.210;2023-03-12T11:12:59;13.60;62.40
32139;DHT22;18644;48.700;9.210;2023-03-12T11:15:29;13.80;62.50
32139;DHT22;18644;48.700;9.210;2023-03-12T11:18:24;14.00;62.50
32139;DHT22;18644;48.700;9.210;2023-03-12T11:21:15;14.20;61.40
32139;DHT22;18644;48.700;9.210;2023-03-12T11:23:46;14.40;61.10
32139;DHT22;18644;48.700;9.210;2023-03-12T11:26:35;14.50;60.40
32139;DHT22;18644;48.700;9.210;2023-03-12T11:29:09;14.60;60.20
32139;DHT22;18644;48.700;9.210;2023-03-12T11:31:43;14.60;60.30
32139;DHT22;18644;48.700;9.210;2023-03-12T11:34:20;14.80;59.90
32139;DHT22;18644;48.700;9.210;2023-03-12T11:36:58;14.80;59.20
32139;DHT22;18644;48.700;9.210;2023-03-12T11:39:36;14.80;58.90
32139;DHT22;18644;48.700;9.210;2023-03-12T11:42:19;14.80;59.00
32139;DHT22;18644;48.700;9.210;2023-03-12T11:45:01;14.80;58.50
32139;DHT22;18644;48.700;9.210;2023-03-12T11:47:52;14.70;58.40
32139;DHT22;18644;48.700;9.210;2023-03-12T11:50:32;14.70;58.50
32139;DHT22;18644;48.700;9.210;2023-03-12T11:53:28;14.70;58.60
32139;DHT22;18644;48.700;9.210;2023-03-12T11:56:12;14.70;58.60
32139;DHT22;18644;48.700;9.210;2023-03-12T11:58:53;14.70;58.60
32139;DHT22;18644;48.700;9.210;2023-03-12T12:01:35;14.80;58.40
32139;DHT22;18644;48.700;9.210;2023-03-12T12:04:38;14.80;58.00
32139;DHT22;18644;48.700;9.210;2023-03-12T12:07:18;14.80;58.00
32139;DHT22;18644;48.700;9.210;2023-03-12T12:09:59;14.80;57.80
32139;DHT22;18644;48.700;9.210;2023-03-12T12:12:39;14.80;57.60
32139;DHT22;18644;48.700;9.210;2023-03-12T12:15:23;14.90;58.00
32139;DHT22;18644;48.700;9.210;2023-03-12T12:18:01;14.80;57.30
32139;DHT22;18644;48.700;9.210;2023-03-12T12:20:40;14.80;57.30
32139;DHT22;18644;48.700;9.210;2023-03-12T12:23:16;14.80;57.30
32139;DHT22;18644;48.700;9.210;2023-03-12T12:26:13;14.80;57.40
32139;DHT22;18644;48.700;9.210;2023-03-12T12:29:20;14.80;57.20
32139;DHT22;18644;48.700;9.210;2023-03-12T12:31:54;14.80;57.30
32139;DHT22;18644;48.700;9.210;2023-03-12T12:34:34;14.80;57.10
32139;DHT22;18644;48.700;9.210;2023-03-12T12:37:31;14.80;56.90
32139;DHT22;18644;48.700;9.210;2023-03-12T12:40:11;14.90;57.00
32139;DHT22;18644;48.700;9.210;2023-03-12T12:43:01;15.00;57.40
32139;DHT22;18644;48.700;9.210;2023-03-12T12:45:32;15.10;57.30
32139;DHT22;18644;48.700;9.210;2023-03-12T12:48:03;15.20;57.40
32139;DHT22;18644;48.700;9.210;2023-03-12T12:50:36;15.30;57.40
32139;DHT22;18644;48.700;9.210;2023-03-12T12:53:13;15.40;56.80
32139;DHT22;18644;48.700;9.210;2023-03-12T12:55:51;15.40;56.10
32139;DHT22;18644;48.700;9.210;2023-03-12T12:58:36;15.50;55.80
32139;DHT22;18644;48.700;9.210;2023-03-12T13:01:13;15.60;55.60
32139;DHT22;18644;48.700;9.210;2023-03-12T13:03:41;15.50;55.50
32139;DHT22;18644;48.700;9.210;2023-03-12T13:06:12;15.50;55.10
32139;DHT22;18644;48.700;9.210;2023-03-12T13:09:12;15.50;55.00
32139;DHT22;18644;48.700;9.210;2023-03-12T13:11:44;15.40;54.80
32139;DHT22;18644;48.700;9.210;2023-03-12T13:14:20;15.40;54.80
32139;DHT22;18644;48.700;9.210;2023-03-12T13:17:22;15.40;54.70
32139;DHT22;18644;48.700;9.210;2023-03-12T13:20:12;15.30;54.70
32139;DHT22;18644;48.700;9.210;2023-03-12T13:22:59;15.30;54.60
32139;DHT22;18644;48.700;9.210;2023-03-12T13:25:51;15.30;54.70
32139;DHT22;18644;48.700;9.210;2023-03-12T13:28:37;15.20;54.70
32139;DHT22;18644;48.700;9.210;2023-03-12T13:31:43;15.20;54.80
32139;DHT22;18644;48.700;9.210;2023-03-12T13:34:40;15.10;54.90
32139;DHT22;18644;48.700;9.210;2023-03-12T13:40:53;15.00;55.10
32139;DHT22;18644;48.700;9.210;2023-03-12T13:43:50;15.00;55.10
32139;DHT22;18644;48.700;9.210;2023-03-12T13:49:15;14.90;55.40
32139;DHT22;18644;48.700;9.210;2023-03-12T13:51:54;14.90;55.40
32139;DHT22;18644;48.700;9.210;2023-03-12T13:54:39;15.00;55.40
32139;DHT22;18644;48.700;9.210;2023-03-12T13:57:43;15.00;55.40
32139;DHT22;18644;48.700;9.210;2023-03-12T14:00:15;15.10;55.30
32139;DHT22;18644;48.700;9.210;2023-03-12T14:02:49;15.20;55.00
32139;DHT22;18644;48.700;9.210;2023-03-12T14:05:18;15.20;54.60
32139;DHT22;18644;48.700;9.210;2023-03-12T14:08:06;15.20;54.40
32139;DHT22;18644;48.700;9.210;2023-03-12T14:11:02;15.20;54.10
32139;DHT22;18644;48.700;9.210;2023-03-12T14:16:50;15.20;54.10
32139;DHT22;18644;48.700;9.210;2023-03-12T14:19:27;15.20;54.00
32139;DHT22;18644;48.700;9.210;2023-03-12T14:21:59;15.20;54.00
32139;DHT22;18644;48.700;9.210;2023-03-12T14:24:32;15.20;53.90
32139;DHT22;18644;48.700;9.210;2023-03-12T14:27:00;15.20;53.90
32139;DHT22;18644;48.700;9.210;2023-03-12T14:29:33;15.30;54.00
32139;DHT22;18644;48.700;9.210;2023-03-12T14:32:03;15.30;54.10
32139;DHT22;18644;48.700;9.210;2023-03-12T14:34:40;15.40;54.30
32139;DHT22;18644;48.700;9.210;2023-03-12T14:37:14;15.50;54.10
32139;DHT22;18644;48.700;9.210;2023-03-12T14:39:47;15.50;54.00
32139;DHT22;18644;48.700;9.210;2023-03-12T14:42:21;15.60;54.10
32139;DHT22;18644;48.700;9.210;2023-03-12T14:44:57;15.60;54.00
32139;DHT22;18644;48.700;9.210;2023-03-12T14:47:28;15.70;54.20
32139;DHT22;18644;48.700;9.210;2023-03-12T14:49:58;15.80;54.20
32139;DHT22;18644;48.700;9.210;2023-03-12T14:52:26;15.80;54.10
32139;DHT22;18644;48.700;9.210;2023-03-12T14:54:57;15.90;54.00
32139;DHT22;18644;48.700;9.210;2023-03-12T14:57:33;15.90;54.40
32139;DHT22;18644;48.700;9.210;2023-03-12T15:00:32;16.00;53.40
32139;DHT22;18644;48.700;9.210;2023-03-12T15:03:03;16.00;53.20
32139;DHT22;18644;48.700;9.210;2023-03-12T15:05:37;16.00;52.90
32139;DHT22;18644;48.700;9.210;2023-03-12T15:08:09;16.00;52.70
32139;DHT22;18644;48.700;9.210;2023-03-12T15:10:58;16.10;53.00
32139;DHT22;18644;48.700;9.210;2023-03-12T15:13:26;16.10;53.00
32139;DHT22;18644;48.700;9.210;2023-03-12T15:15:56;16.20;53.10
32139;DHT22;18644;48.700;9.210;2023-03-12T15:18:32;16.30;53.10
32139;DHT22;18644;48.700;9.210;2023-03-12T15:21:04;16.30;53.10
32139;DHT22;18644;48.700;9.210;2023-03-12T15:23:35;16.40;52.90
32139;DHT22;18644;48.700;9.210;2023-03-12T15:26:16;16.50;52.50
32139;DHT22;18644;48.700;9.210;2023-03-12T15:29:02;16.50;52.10
32139;DHT22;18644;48.700;9.210;2023-03-12T15:31:44;16.50;51.80
32139;DHT22;18644;48.700;9.210;2023-03-12T15:34:24;16.50;51.60
32139;DHT22;18644;48.700;9.210;2023-03-12T15:37:00;16.50;51.50
32139;DHT22;18644;48.700;9.210;2023-03-12T15:39:47;16.50;50.90
32139;DHT22;18644;48.700;9.210;2023-03-12T15:42:20;16.40;50.80
32139;DHT22;18644;48.700;9.210;2023-03-12T15:45:01;16.30;50.80
32139;DHT22;18644;48.700;9.210;2023-03-12T15:47:32;16.30;50.90
32139;DHT22;18644;48.700;9.210;2023-03-12T15:53:03;16.20;50.70
32139;DHT22;18644;48.700;9.210;2023-03-12T15:55:32;16.10;50.80
32139;DHT22;18644;48.700;9.210;2023-03-12T15:58:23;16.00;50.90
32139;DHT22;18644;48.700;9.210;2023-03-12T16:01:04;16.00;51.00
32139;DHT22;18644;48.700;9.210;2023-03-12T16:03:32;16.00;51.20
32139;DHT22;18644;48.700;9.210;2023-03-12T16:05:59;15.90;51.00
32139;DHT22;18644;48.700;9.210;2023-03-12T16:08:34;15.90;50.90
32139;DHT22;18644;48.700;9.210;2023-03-12T16:11:10;15.80;50.70
32139;DHT22;18644;48.700;9.210;2023-03-12T16:13:41;15.80;50.70
32139;DHT22;18644;48.700;9.210;2023-03-12T16:16:11;15.80;51.10
32139;DHT22;18644;48.700;9.210;2023-03-12T16:18:42;15.70;51.00
32139;DHT22;18644;48.700;9.210;2023-03-12T16:21:10;15.70;51.10
32139;DHT22;18644;48.700;9.210;2023-03-12T16:23:38;15.70;51.10
32139;DHT22;18644;48.700;9.210;2023-03-12T16:26:05;15.60;51.10